sensor_id;sensor_type;location;lat;lon;timestamp;P1;durP1;ratioP1;P2;durP2;ratioP2
495;SDS011;39559;48.630;9.162;2023-03-24T00:01:26;5.43;;;4.13;;
495;SDS011;39559;48.630;9.162;2023-03-24T00:03:51;5.03;;;4.53;;
495;SDS011;39559;48.630;9.162;2023-03-24T00:06:17;4.70;;;4.30;;
495;SDS011;39559;48.630;9.162;2023-03-24T00:08:46;4.63;;;4.22;;
495;SDS011;39559;48.630;9.162;2023-03-24T00:11:12;7.00;;;4.93;;
495;SDS011;39559;48.630;9.162;2023-03-24T00:15:39;6.65;;;3.40;;
495;SDS011;39559;48.630;9.162;2023-03-24T00:18:05;4.13;;;3.73;;
495;SDS011;39559;48.630;9.162;2023-03-24T00:20:35;4.47;;;4.07;;
495;SDS011;39559;48.630;9.162;2023-03-24T00:23:00;4.50;;;4.10;;
495;SDS011;39559;48.630;9.162;2023-03-24T00:25:27;4.10;;;3.80;;
495;SDS011;39559;48.630;9.162;2023-03-24T00:28:00;4.30;;;3.90;;
495;SDS011;39559;48.630;9.162;2023-03-24T00:30:27;5.50;;;4.80;;
495;SDS011;39559;48.630;9.162;2023-03-24T00:32:53;5.13;;;4.22;;
495;SDS011;39559;48.630;9.162;2023-03-24T00:35:20;5.20;;;4.68;;
495;SDS011;39559;48.630;9.162;2023-03-24T00:39:36;3.65;;;3.30;;
495;SDS011;39559;48.630;9.162;2023-03-24T00:42:08;3.60;;;3.10;;
495;SDS011;39559;48.630;9.162;2023-03-24T00:44:34;4.38;;;3.33;;
495;SDS011;39559;48.630;9.162;2023-03-24T00:47:00;4.55;;;3.80;;
495;SDS011;39559;48.630;9.162;2023-03-24T00:49:29;4.20;;;3.63;;
495;SDS011;39559;48.630;9.162;2023-03-24T00:54:40;4.05;;;3.70;;
495;SDS011;39559;48.630;9.162;2023-03-24T00:57:09;3.47;;;3.25;;
495;SDS011;39559;48.630;9.162;2023-03-24T00:59:37;3.80;;;3.50;;
495;SDS011;39559;48.630;9.162;2023-03-24T01:03:33;3.10;;;2.80;;
495;SDS011;39559;48.630;9.162;2023-03-24T01:05:59;4.97;;;4.47;;
495;SDS011;39559;48.630;9.162;2023-03-24T01:08:26;3.70;;;3.40;;
495;SDS011;39559;48.630;9.162;2023-03-24T01:10:53;3.65;;;3.33;;
495;SDS011;39559;48.630;9.162;2023-03-24T01:13:20;3.35;;;3.05;;
495;SDS011;39559;48.630;9.162;2023-03-24T01:15:47;3.28;;;2.90;;
495;SDS011;39559;48.630;9.162;2023-03-24T01:18:13;4.10;;;3.13;;
495;SDS011;39559;48.630;9.162;2023-03-24T01:20:40;2.92;;;2.72;;
495;SDS011;39559;48.630;9.162;2023-03-24T01:23:11;4.20;;;3.05;;
495;SDS011;39559;48.630;9.162;2023-03-24T01:27:31;3.40;;;3.10;;
495;SDS011;39559;48.630;9.162;2023-03-24T01:29:57;3.60;;;3.30;;
495;SDS011;39559;48.630;9.162;2023-03-24T01:32:27;3.63;;;3.30;;
495;SDS011;39559;48.630;9.162;2023-03-24T01:34:54;5.63;;;4.65;;
495;SDS011;39559;48.630;9.162;2023-03-24T01:37:19;3.50;;;3.20;;
495;SDS011;39559;48.630;9.162;2023-03-24T01:39:45;3.33;;;3.00;;
495;SDS011;39559;48.630;9.162;2023-03-24T01:42:15;3.20;;;2.90;;
495;SDS011;39559;48.630;9.162;2023-03-24T01:44:45;3.20;;;2.90;;
495;SDS011;39559;48.630;9.162;2023-03-24T01:47:11;4.28;;;3.47;;
495;SDS011;39559;48.630;9.162;2023-03-24T01:51:30;3.25;;;3.00;;
495;SDS011;39559;48.630;9.162;2023-03-24T01:57:17;3.00;;;2.67;;
495;SDS011;39559;48.630;9.162;2023-03-24T01:59:44;3.60;;;3.30;;
495;SDS011;39559;48.630;9.162;2023-03-24T02:02:14;4.70;;;4.18;;
495;SDS011;39559;48.630;9.162;2023-03-24T02:04:42;3.95;;;3.55;;
495;SDS011;39559;48.630;9.162;2023-03-24T02:07:31;4.10;;;3.35;;
495;SDS011;39559;48.630;9.162;2023-03-24T02:10:01;4.30;;;3.90;;
495;SDS011;39559;48.630;9.162;2023-03-24T02:12:30;3.50;;;3.20;;
495;SDS011;39559;48.630;9.162;2023-03-24T02:15:27;5.20;;;4.72;;
495;SDS011;39559;48.630;9.162;2023-03-24T02:42:29;5.70;;;4.00;;
495;SDS011;39559;48.630;9.162;2023-03-24T02:45:27;4.90;;;4.50;;
495;SDS011;39559;48.630;9.162;2023-03-24T02:51:19;5.38;;;4.88;;
495;SDS011;39559;48.630;9.162;2023-03-24T02:54:04;5.78;;;5.28;;
495;SDS011;39559;48.630;9.162;2023-03-24T02:56:42;7.55;;;4.80;;
495;SDS011;39559;48.630;9.162;2023-03-24T02:59:10;6.72;;;4.97;;
495;SDS011;39559;48.630;9.162;2023-03-24T03:03:22;5.63;;;5.03;;
495;SDS011;39559;48.630;9.162;2023-03-24T03:06:03;6.65;;;5.00;;
495;SDS011;39559;48.630;9.162;2023-03-24T03:08:37;6.40;;;4.97;;
495;SDS011;39559;48.630;9.162;2023-03-24T03:11:05;5.82;;;4.70;;
495;SDS011;39559;48.630;9.162;2023-03-24T03:13:37;4.80;;;3.80;;
495;SDS011;39559;48.630;9.162;2023-03-24T03:16:09;4.55;;;4.13;;
495;SDS011;39559;48.630;9.162;2023-03-24T03:19:04;4.07;;;3.72;;
495;SDS011;39559;48.630;9.162;2023-03-24T03:21:37;5.38;;;4.10;;
495;SDS011;39559;48.630;9.162;2023-03-24T03:24:17;5.35;;;4.55;;
495;SDS011;39559;48.630;9.162;2023-03-24T03:27:23;7.75;;;6.25;;
495;SDS011;39559;48.630;9.162;2023-03-24T03:29:53;3.30;;;3.00;;
495;SDS011;39559;48.630;9.162;2023-03-24T03:32:28;3.05;;;2.75;;
495;SDS011;39559;48.630;9.162;2023-03-24T03:35:04;3.83;;;3.42;;
495;SDS011;39559;48.630;9.162;2023-03-24T03:40:22;3.55;;;3.25;;
495;SDS011;39559;48.630;9.162;2023-03-24T03:42:53;3.63;;;3.20;;
495;SDS011;39559;48.630;9.162;2023-03-24T03:45:19;4.13;;;3.60;;
495;SDS011;39559;48.630;9.162;2023-03-24T03:47:45;4.40;;;3.60;;
495;SDS011;39559;48.630;9.162;2023-03-24T03:51:16;2.90;;;2.70;;
495;SDS011;39559;48.630;9.162;2023-03-24T03:56:23;6.03;;;3.33;;
495;SDS011;39559;48.630;9.162;2023-03-24T03:58:51;4.10;;;3.70;;
495;SDS011;39559;48.630;9.162;2023-03-24T04:01:21;3.73;;;3.43;;
495;SDS011;39559;48.630;9.162;2023-03-24T04:15:17;4.65;;;3.30;;
495;SDS011;39559;48.630;9.162;2023-03-24T04:20:53;4.13;;;3.40;;
495;SDS011;39559;48.630;9.162;2023-03-24T04:34:44;3.83;;;3.50;;
495;SDS011;39559;48.630;9.162;2023-03-24T04:39:12;3.50;;;3.17;;
495;SDS011;39559;48.630;9.162;2023-03-24T04:41:42;4.60;;;4.20;;
495;SDS011;39559;48.630;9.162;2023-03-24T04:44:11;4.75;;;4.30;;
495;SDS011;39559;48.630;9.162;2023-03-24T04:46:41;2.88;;;2.55;;
495;SDS011;39559;48.630;9.162;2023-03-24T04:49:08;4.55;;;3.28;;
495;SDS011;39559;48.630;9.162;2023-03-24T04:51:34;5.77;;;2.43;;
495;SDS011;39559;48.630;9.162;2023-03-24T04:54:00;3.00;;;2.70;;
495;SDS011;39559;48.630;9.162;2023-03-24T04:58:57;3.47;;;3.17;;
495;SDS011;39559;48.630;9.162;2023-03-24T05:03:10;5.28;;;4.03;;
495;SDS011;39559;48.630;9.162;2023-03-24T05:05:40;3.45;;;3.15;;
495;SDS011;39559;48.630;9.162;2023-03-24T05:08:06;3.45;;;3.15;;
495;SDS011;39559;48.630;9.162;2023-03-24T05:10:33;3.20;;;2.92;;
495;SDS011;39559;48.630;9.162;2023-03-24T05:13:00;3.78;;;3.40;;
495;SDS011;39559;48.630;9.162;2023-03-24T05:15:26;3.15;;;2.95;;
495;SDS011;39559;48.630;9.162;2023-03-24T05:17:52;3.50;;;3.20;;
495;SDS011;39559;48.630;9.162;2023-03-24T05:20:18;3.47;;;3.17;;
495;SDS011;39559;48.630;9.162;2023-03-24T05:22:44;3.17;;;2.87;;
495;SDS011;39559;48.630;9.162;2023-03-24T05:27:07;4.22;;;3.30;;
495;SDS011;39559;48.630;9.162;2023-03-24T05:29:33;3.40;;;3.10;;
495;SDS011;39559;48.630;9.162;2023-03-24T05:31:58;4.20;;;3.80;;
495;SDS011;39559;48.630;9.162;2023-03-24T05:34:24;3.50;;;3.20;;
495;SDS011;39559;48.630;9.162;2023-03-24T05:36:49;4.80;;;3.37;;
495;SDS011;39559;48.630;9.162;2023-03-24T05:39:15;6.73;;;4.80;;
495;SDS011;39559;48.630;9.162;2023-03-24T05:41:41;5.47;;;4.80;;
495;SDS011;39559;48.630;9.162;2023-03-24T05:44:07;5.83;;;5.20;;
495;SDS011;39559;48.630;9.162;2023-03-24T05:46:32;5.87;;;5.30;;
495;SDS011;39559;48.630;9.162;2023-03-24T05:51:04;5.70;;;5.10;;
495;SDS011;39559;48.630;9.162;2023-03-24T05:53:30;8.43;;;5.23;;
495;SDS011;39559;48.630;9.162;2023-03-24T05:55:55;6.47;;;5.87;;
495;SDS011;39559;48.630;9.162;2023-03-24T05:58:22;5.72;;;5.22;;
495;SDS011;39559;48.630;9.162;2023-03-24T06:00:48;8.10;;;7.13;;
495;SDS011;39559;48.630;9.162;2023-03-24T06:03:14;6.00;;;5.50;;
495;SDS011;39559;48.630;9.162;2023-03-24T06:05:41;6.22;;;5.63;;
495;SDS011;39559;48.630;9.162;2023-03-24T06:08:10;6.63;;;5.93;;
495;SDS011;39559;48.630;9.162;2023-03-24T06:10:36;5.65;;;5.15;;
495;SDS011;39559;48.630;9.162;2023-03-24T06:15:04;5.75;;;5.28;;
495;SDS011;39559;48.630;9.162;2023-03-24T06:17:30;6.47;;;5.40;;
495;SDS011;39559;48.630;9.162;2023-03-24T06:19:56;6.30;;;5.50;;
495;SDS011;39559;48.630;9.162;2023-03-24T06:22:35;5.45;;;5.03;;
495;SDS011;39559;48.630;9.162;2023-03-24T06:25:01;5.20;;;4.80;;
495;SDS011;39559;48.630;9.162;2023-03-24T06:27:29;6.22;;;5.63;;
495;SDS011;39559;48.630;9.162;2023-03-24T06:29:59;6.00;;;5.25;;
495;SDS011;39559;48.630;9.162;2023-03-24T06:32:25;5.13;;;4.67;;
495;SDS011;39559;48.630;9.162;2023-03-24T06:34:51;6.40;;;5.80;;
495;SDS011;39559;48.630;9.162;2023-03-24T06:39:01;5.70;;;5.10;;
495;SDS011;39559;48.630;9.162;2023-03-24T06:41:26;5.80;;;5.30;;
495;SDS011;39559;48.630;9.162;2023-03-24T06:43:52;5.20;;;4.80;;
495;SDS011;39559;48.630;9.162;2023-03-24T06:46:17;5.33;;;4.83;;
495;SDS011;39559;48.630;9.162;2023-03-24T06:48:43;5.47;;;4.80;;
495;SDS011;39559;48.630;9.162;2023-03-24T06:51:10;5.85;;;5.10;;
495;SDS011;39559;48.630;9.162;2023-03-24T06:53:35;5.90;;;5.30;;
495;SDS011;39559;48.630;9.162;2023-03-24T06:56:02;5.60;;;5.10;;
495;SDS011;39559;48.630;9.162;2023-03-24T06:58:28;5.10;;;4.70;;
495;SDS011;39559;48.630;9.162;2023-03-24T07:02:58;5.15;;;4.65;;
495;SDS011;39559;48.630;9.162;2023-03-24T07:05:26;5.30;;;4.80;;
495;SDS011;39559;48.630;9.162;2023-03-24T07:07:52;5.27;;;4.77;;
495;SDS011;39559;48.630;9.162;2023-03-24T07:10:17;5.80;;;5.30;;
495;SDS011;39559;48.630;9.162;2023-03-24T07:12:43;6.68;;;5.85;;
495;SDS011;39559;48.630;9.162;2023-03-24T07:15:09;5.20;;;4.70;;
495;SDS011;39559;48.630;9.162;2023-03-24T07:17:35;5.43;;;4.93;;
495;SDS011;39559;48.630;9.162;2023-03-24T07:20:01;5.37;;;4.87;;
495;SDS011;39559;48.630;9.162;2023-03-24T07:22:32;6.90;;;5.70;;
495;SDS011;39559;48.630;9.162;2023-03-24T07:26:56;5.68;;;4.97;;
495;SDS011;39559;48.630;9.162;2023-03-24T07:29:22;6.33;;;5.57;;
495;SDS011;39559;48.630;9.162;2023-03-24T07:31:49;7.70;;;5.30;;
495;SDS011;39559;48.630;9.162;2023-03-24T07:34:15;6.50;;;5.50;;
495;SDS011;39559;48.630;9.162;2023-03-24T07:36:40;6.53;;;5.50;;
495;SDS011;39559;48.630;9.162;2023-03-24T07:39:06;6.27;;;5.67;;
495;SDS011;39559;48.630;9.162;2023-03-24T07:41:33;6.40;;;5.80;;
495;SDS011;39559;48.630;9.162;2023-03-24T07:43:59;6.80;;;5.43;;
495;SDS011;39559;48.630;9.162;2023-03-24T07:46:25;7.75;;;6.05;;
495;SDS011;39559;48.630;9.162;2023-03-24T07:50:54;7.05;;;5.82;;
495;SDS011;39559;48.630;9.162;2023-03-24T07:53:20;7.03;;;6.40;;
495;SDS011;39559;48.630;9.162;2023-03-24T07:55:46;6.67;;;6.07;;
495;SDS011;39559;48.630;9.162;2023-03-24T07:58:12;6.03;;;5.43;;
495;SDS011;39559;48.630;9.162;2023-03-24T08:00:37;7.13;;;6.53;;
495;SDS011;39559;48.630;9.162;2023-03-24T08:03:03;6.67;;;6.07;;
495;SDS011;39559;48.630;9.162;2023-03-24T08:05:31;7.37;;;6.67;;
495;SDS011;39559;48.630;9.162;2023-03-24T08:07:57;5.78;;;4.78;;
495;SDS011;39559;48.630;9.162;2023-03-24T08:10:28;4.70;;;4.27;;
495;SDS011;39559;48.630;9.162;2023-03-24T08:14:52;5.40;;;4.90;;
495;SDS011;39559;48.630;9.162;2023-03-24T08:17:17;5.63;;;5.10;;
495;SDS011;39559;48.630;9.162;2023-03-24T08:19:43;4.93;;;4.43;;
495;SDS011;39559;48.630;9.162;2023-03-24T08:22:08;7.23;;;5.73;;
495;SDS011;39559;48.630;9.162;2023-03-24T08:24:34;5.73;;;5.13;;
495;SDS011;39559;48.630;9.162;2023-03-24T08:27:01;5.80;;;4.60;;
495;SDS011;39559;48.630;9.162;2023-03-24T08:29:30;6.70;;;4.53;;
495;SDS011;39559;48.630;9.162;2023-03-24T08:31:59;4.75;;;4.30;;
495;SDS011;39559;48.630;9.162;2023-03-24T08:34:25;4.95;;;4.50;;
495;SDS011;39559;48.630;9.162;2023-03-24T08:38:50;6.18;;;5.40;;
495;SDS011;39559;48.630;9.162;2023-03-24T08:41:15;5.00;;;4.50;;
495;SDS011;39559;48.630;9.162;2023-03-24T08:43:41;6.50;;;5.30;;
495;SDS011;39559;48.630;9.162;2023-03-24T08:46:07;9.37;;;6.50;;
495;SDS011;39559;48.630;9.162;2023-03-24T08:48:33;7.03;;;6.43;;
495;SDS011;39559;48.630;9.162;2023-03-24T08:51:07;7.50;;;6.80;;
495;SDS011;39559;48.630;9.162;2023-03-24T08:53:34;6.78;;;6.18;;
495;SDS011;39559;48.630;9.162;2023-03-24T08:56:00;6.60;;;5.90;;
495;SDS011;39559;48.630;9.162;2023-03-24T08:58:26;9.90;;;6.70;;
495;SDS011;39559;48.630;9.162;2023-03-24T09:02:48;7.00;;;6.38;;
495;SDS011;39559;48.630;9.162;2023-03-24T09:05:19;6.97;;;6.35;;
495;SDS011;39559;48.630;9.162;2023-03-24T09:07:47;6.90;;;6.30;;
495;SDS011;39559;48.630;9.162;2023-03-24T09:10:18;7.30;;;6.60;;
495;SDS011;39559;48.630;9.162;2023-03-24T09:12:47;7.18;;;6.47;;
495;SDS011;39559;48.630;9.162;2023-03-24T09:15:13;6.95;;;6.35;;
495;SDS011;39559;48.630;9.162;2023-03-24T09:17:39;7.23;;;6.30;;
495;SDS011;39559;48.630;9.162;2023-03-24T09:20:06;6.38;;;5.88;;
495;SDS011;39559;48.630;9.162;2023-03-24T09:22:45;6.30;;;5.65;;
495;SDS011;39559;48.630;9.162;2023-03-24T09:26:45;6.00;;;5.40;;
495;SDS011;39559;48.630;9.162;2023-03-24T09:29:11;5.90;;;5.40;;
495;SDS011;39559;48.630;9.162;2023-03-24T09:31:36;7.43;;;5.63;;
495;SDS011;39559;48.630;9.162;2023-03-24T09:34:02;5.60;;;5.10;;
495;SDS011;39559;48.630;9.162;2023-03-24T09:36:28;5.47;;;4.97;;
495;SDS011;39559;48.630;9.162;2023-03-24T09:38:53;5.63;;;4.67;;
495;SDS011;39559;48.630;9.162;2023-03-24T09:41:26;5.33;;;4.83;;
495;SDS011;39559;48.630;9.162;2023-03-24T09:43:55;5.55;;;5.05;;
495;SDS011;39559;48.630;9.162;2023-03-24T09:46:29;5.65;;;5.18;;
495;SDS011;39559;48.630;9.162;2023-03-24T09:50:48;5.30;;;4.80;;
495;SDS011;39559;48.630;9.162;2023-03-24T09:56:00;5.85;;;4.45;;
495;SDS011;39559;48.630;9.162;2023-03-24T09:58:36;5.30;;;4.90;;
495;SDS011;39559;48.630;9.162;2023-03-24T10:01:06;4.75;;;4.35;;
495;SDS011;39559;48.630;9.162;2023-03-24T10:03:37;5.85;;;5.35;;
495;SDS011;39559;48.630;9.162;2023-03-24T10:06:04;5.05;;;4.65;;
495;SDS011;39559;48.630;9.162;2023-03-24T10:08:34;4.50;;;4.10;;
495;SDS011;39559;48.630;9.162;2023-03-24T10:11:29;4.43;;;3.88;;
495;SDS011;39559;48.630;9.162;2023-03-24T10:14:43;4.13;;;3.83;;
495;SDS011;39559;48.630;9.162;2023-03-24T10:20:30;4.85;;;4.45;;
495;SDS011;39559;48.630;9.162;2023-03-24T10:23:44;4.50;;;4.10;;
495;SDS011;39559;48.630;9.162;2023-03-24T10:26:08;3.75;;;3.45;;
495;SDS011;39559;48.630;9.162;2023-03-24T10:32:24;3.80;;;3.50;;
495;SDS011;39559;48.630;9.162;2023-03-24T10:34:57;3.38;;;3.15;;
495;SDS011;39559;48.630;9.162;2023-03-24T10:38:37;3.75;;;3.45;;
495;SDS011;39559;48.630;9.162;2023-03-24T10:41:02;4.13;;;3.83;;
495;SDS011;39559;48.630;9.162;2023-03-24T10:43:28;3.67;;;3.38;;
495;SDS011;39559;48.630;9.162;2023-03-24T10:45:56;3.60;;;3.30;;
495;SDS011;39559;48.630;9.162;2023-03-24T10:49:05;3.33;;;3.03;;
495;SDS011;39559;48.630;9.162;2023-03-24T10:51:31;2.85;;;2.65;;
495;SDS011;39559;48.630;9.162;2023-03-24T11:02:34;2.80;;;2.60;;
495;SDS011;39559;48.630;9.162;2023-03-24T11:05:11;2.90;;;2.70;;
495;SDS011;39559;48.630;9.162;2023-03-24T11:07:50;2.42;;;2.22;;
495;SDS011;39559;48.630;9.162;2023-03-24T11:10:18;2.80;;;2.60;;
495;SDS011;39559;48.630;9.162;2023-03-24T11:15:21;2.70;;;2.50;;
495;SDS011;39559;48.630;9.162;2023-03-24T11:18:33;2.45;;;2.25;;
495;SDS011;39559;48.630;9.162;2023-03-24T11:20:39;2.50;;;2.30;;
495;SDS011;39559;48.630;9.162;2023-03-24T11:23:10;2.40;;;2.17;;
495;SDS011;39559;48.630;9.162;2023-03-24T11:26:35;3.63;;;3.33;;
495;SDS011;39559;48.630;9.162;2023-03-24T11:29:22;2.97;;;2.67;;
495;SDS011;39559;48.630;9.162;2023-03-24T11:32:02;2.53;;;2.33;;
495;SDS011;39559;48.630;9.162;2023-03-24T11:34:36;2.55;;;2.35;;
495;SDS011;39559;48.630;9.162;2023-03-24T11:37:13;2.40;;;2.20;;
495;SDS011;39559;48.630;9.162;2023-03-24T11:39:43;2.45;;;2.25;;
495;SDS011;39559;48.630;9.162;2023-03-24T11:47:12;2.13;;;2.03;;
495;SDS011;39559;48.630;9.162;2023-03-24T11:50:29;2.20;;;2.00;;
495;SDS011;39559;48.630;9.162;2023-03-24T11:56:05;2.22;;;1.98;;
495;SDS011;39559;48.630;9.162;2023-03-24T12:04:41;1.95;;;1.85;;
495;SDS011;39559;48.630;9.162;2023-03-24T12:09:54;2.28;;;2.08;;
495;SDS011;39559;48.630;9.162;2023-03-24T12:14:44;1.90;;;1.80;;
495;SDS011;39559;48.630;9.162;2023-03-24T12:17:35;2.20;;;2.00;;
495;SDS011;39559;48.630;9.162;2023-03-24T12:22:59;2.70;;;2.40;;
495;SDS011;39559;48.630;9.162;2023-03-24T12:30:47;2.05;;;1.88;;
495;SDS011;39559;48.630;9.162;2023-03-24T12:38:29;1.60;;;1.50;;
495;SDS011;39559;48.630;9.162;2023-03-24T12:58:13;1.83;;;1.73;;
495;SDS011;39559;48.630;9.162;2023-03-24T13:02:24;1.80;;;1.70;;
495;SDS011;39559;48.630;9.162;2023-03-24T13:04:51;1.95;;;1.77;;
495;SDS011;39559;48.630;9.162;2023-03-24T13:07:23;1.88;;;1.77;;
495;SDS011;39559;48.630;9.162;2023-03-24T13:12:39;1.90;;;1.80;;
495;SDS011;39559;48.630;9.162;2023-03-24T13:21:01;1.85;;;1.70;;
495;SDS011;39559;48.630;9.162;2023-03-24T13:26:26;1.80;;;1.70;;
495;SDS011;39559;48.630;9.162;2023-03-24T13:29:11;1.83;;;1.70;;
495;SDS011;39559;48.630;9.162;2023-03-24T13:31:43;2.33;;;2.15;;
495;SDS011;39559;48.630;9.162;2023-03-24T13:34:28;2.38;;;1.70;;
495;SDS011;39559;48.630;9.162;2023-03-24T13:37:02;1.80;;;1.70;;
495;SDS011;39559;48.630;9.162;2023-03-24T13:39:32;2.50;;;2.30;;
495;SDS011;39559;48.630;9.162;2023-03-24T13:42:00;1.70;;;1.60;;
495;SDS011;39559;48.630;9.162;2023-03-24T13:44:29;1.70;;;1.60;;
495;SDS011;39559;48.630;9.162;2023-03-24T13:47:08;1.85;;;1.75;;
495;SDS011;39559;48.630;9.162;2023-03-24T13:50:12;1.90;;;1.80;;
495;SDS011;39559;48.630;9.162;2023-03-24T13:52:43;2.13;;;1.77;;
495;SDS011;39559;48.630;9.162;2023-03-24T13:55:13;2.25;;;2.05;;
495;SDS011;39559;48.630;9.162;2023-03-24T13:57:58;2.00;;;1.90;;
495;SDS011;39559;48.630;9.162;2023-03-24T14:00:28;1.90;;;1.80;;
495;SDS011;39559;48.630;9.162;2023-03-24T14:03:30;2.60;;;1.95;;
495;SDS011;39559;48.630;9.162;2023-03-24T14:05:57;1.90;;;1.65;;
495;SDS011;39559;48.630;9.162;2023-03-24T14:22:34;1.77;;;1.67;;
495;SDS011;39559;48.630;9.162;2023-03-24T14:25:51;1.70;;;1.60;;
495;SDS011;39559;48.630;9.162;2023-03-24T14:28:16;2.30;;;2.10;;
495;SDS011;39559;48.630;9.162;2023-03-24T14:31:02;2.08;;;1.88;;
495;SDS011;39559;48.630;9.162;2023-03-24T14:40:42;1.80;;;1.70;;
495;SDS011;39559;48.630;9.162;2023-03-24T14:54:27;2.42;;;2.20;;
495;SDS011;39559;48.630;9.162;2023-03-24T14:56:53;1.85;;;1.75;;
495;SDS011;39559;48.630;9.162;2023-03-24T15:02:05;2.00;;;1.90;;
495;SDS011;39559;48.630;9.162;2023-03-24T15:04:42;3.60;;;2.63;;
495;SDS011;39559;48.630;9.162;2023-03-24T15:07:28;2.53;;;2.33;;
495;SDS011;39559;48.630;9.162;2023-03-24T15:09:53;2.10;;;2.00;;
495;SDS011;39559;48.630;9.162;2023-03-24T15:12:19;2.47;;;2.00;;
495;SDS011;39559;48.630;9.162;2023-03-24T15:14:45;2.45;;;2.25;;
495;SDS011;39559;48.630;9.162;2023-03-24T15:17:21;2.00;;;1.90;;
495;SDS011;39559;48.630;9.162;2023-03-24T15:19:51;2.20;;;2.00;;
495;SDS011;39559;48.630;9.162;2023-03-24T15:22:19;2.05;;;1.95;;
495;SDS011;39559;48.630;9.162;2023-03-24T15:25:58;2.00;;;1.80;;
495;SDS011;39559;48.630;9.162;2023-03-24T15:28:27;2.30;;;2.10;;
495;SDS011;39559;48.630;9.162;2023-03-24T15:30:54;2.55;;;2.30;;
495;SDS011;39559;48.630;9.162;2023-03-24T15:33:21;2.30;;;2.10;;
495;SDS011;39559;48.630;9.162;2023-03-24T15:35:54;2.55;;;2.35;;
495;SDS011;39559;48.630;9.162;2023-03-24T15:38:28;2.67;;;2.47;;
495;SDS011;39559;48.630;9.162;2023-03-24T15:43:29;2.60;;;2.40;;
495;SDS011;39559;48.630;9.162;2023-03-24T15:45:55;2.50;;;2.30;;
495;SDS011;39559;48.630;9.162;2023-03-24T15:49:56;2.95;;;2.75;;
495;SDS011;39559;48.630;9.162;2023-03-24T15:57:58;2.50;;;2.30;;
495;SDS011;39559;48.630;9.162;2023-03-24T16:00:35;2.75;;;2.55;;
495;SDS011;39559;48.630;9.162;2023-03-24T16:03:03;2.40;;;2.20;;
495;SDS011;39559;48.630;9.162;2023-03-24T16:05:31;3.55;;;2.28;;
495;SDS011;39559;48.630;9.162;2023-03-24T16:07:59;2.53;;;2.20;;
495;SDS011;39559;48.630;9.162;2023-03-24T16:13:52;2.72;;;2.53;;
495;SDS011;39559;48.630;9.162;2023-03-24T16:18:53;2.95;;;2.75;;
495;SDS011;39559;48.630;9.162;2023-03-24T16:21:21;2.65;;;2.45;;
495;SDS011;39559;48.630;9.162;2023-03-24T16:23:52;3.10;;;2.80;;
495;SDS011;39559;48.630;9.162;2023-03-24T16:26:20;2.85;;;2.65;;
495;SDS011;39559;48.630;9.162;2023-03-24T16:28:47;2.70;;;2.50;;
495;SDS011;39559;48.630;9.162;2023-03-24T16:33:50;2.90;;;2.70;;
495;SDS011;39559;48.630;9.162;2023-03-24T16:37:49;2.70;;;2.50;;
495;SDS011;39559;48.630;9.162;2023-03-24T16:40:24;3.80;;;3.50;;
495;SDS011;39559;48.630;9.162;2023-03-24T16:43:03;3.10;;;2.90;;
495;SDS011;39559;48.630;9.162;2023-03-24T16:45:30;2.80;;;2.60;;
495;SDS011;39559;48.630;9.162;2023-03-24T16:47:56;4.72;;;3.38;;
495;SDS011;39559;48.630;9.162;2023-03-24T16:50:25;2.53;;;2.30;;
495;SDS011;39559;48.630;9.162;2023-03-24T16:52:54;3.53;;;3.22;;
495;SDS011;39559;48.630;9.162;2023-03-24T16:55:19;2.57;;;2.37;;
495;SDS011;39559;48.630;9.162;2023-03-24T16:57:45;3.00;;;2.70;;
495;SDS011;39559;48.630;9.162;2023-03-24T17:01:45;2.97;;;2.78;;
495;SDS011;39559;48.630;9.162;2023-03-24T17:04:12;3.53;;;3.10;;
495;SDS011;39559;48.630;9.162;2023-03-24T17:06:42;3.08;;;2.88;;
495;SDS011;39559;48.630;9.162;2023-03-24T17:09:11;3.70;;;3.40;;
495;SDS011;39559;48.630;9.162;2023-03-24T17:11:40;3.33;;;3.10;;
495;SDS011;39559;48.630;9.162;2023-03-24T17:14:09;2.70;;;2.50;;
495;SDS011;39559;48.630;9.162;2023-03-24T17:16:40;3.50;;;3.20;;
495;SDS011;39559;48.630;9.162;2023-03-24T17:19:10;4.68;;;4.03;;
495;SDS011;39559;48.630;9.162;2023-03-24T17:21:41;2.80;;;2.60;;
495;SDS011;39559;48.630;9.162;2023-03-24T17:25:42;3.58;;;3.28;;
495;SDS011;39559;48.630;9.162;2023-03-24T17:28:12;2.43;;;2.23;;
495;SDS011;39559;48.630;9.162;2023-03-24T17:30:41;5.03;;;3.38;;
495;SDS011;39559;48.630;9.162;2023-03-24T17:33:10;4.40;;;3.50;;
495;SDS011;39559;48.630;9.162;2023-03-24T17:35:37;2.67;;;2.47;;
495;SDS011;39559;48.630;9.162;2023-03-24T17:38:03;3.30;;;3.00;;
495;SDS011;39559;48.630;9.162;2023-03-24T17:40:28;3.73;;;3.40;;
495;SDS011;39559;48.630;9.162;2023-03-24T17:42:54;3.90;;;3.60;;
495;SDS011;39559;48.630;9.162;2023-03-24T17:45:19;3.97;;;3.67;;
495;SDS011;39559;48.630;9.162;2023-03-24T17:49:39;3.30;;;3.00;;
495;SDS011;39559;48.630;9.162;2023-03-24T17:52:05;3.58;;;3.28;;
495;SDS011;39559;48.630;9.162;2023-03-24T17:54:31;3.03;;;2.83;;
495;SDS011;39559;48.630;9.162;2023-03-24T17:56:56;3.30;;;3.00;;
495;SDS011;39559;48.630;9.162;2023-03-24T17:59:22;3.50;;;3.20;;
495;SDS011;39559;48.630;9.162;2023-03-24T18:01:47;3.00;;;2.80;;
495;SDS011;39559;48.630;9.162;2023-03-24T18:04:13;4.40;;;3.30;;
495;SDS011;39559;48.630;9.162;2023-03-24T18:06:39;3.20;;;2.80;;
495;SDS011;39559;48.630;9.162;2023-03-24T18:09:06;3.63;;;3.33;;
495;SDS011;39559;48.630;9.162;2023-03-24T18:13:35;2.80;;;2.60;;
495;SDS011;39559;48.630;9.162;2023-03-24T18:16:01;3.35;;;3.05;;
495;SDS011;39559;48.630;9.162;2023-03-24T18:18:28;3.95;;;3.65;;
495;SDS011;39559;48.630;9.162;2023-03-24T18:20:54;3.13;;;2.83;;
495;SDS011;39559;48.630;9.162;2023-03-24T18:23:20;3.30;;;3.00;;
495;SDS011;39559;48.630;9.162;2023-03-24T18:25:45;3.30;;;3.10;;
495;SDS011;39559;48.630;9.162;2023-03-24T18:28:11;2.90;;;2.70;;
495;SDS011;39559;48.630;9.162;2023-03-24T18:30:36;2.93;;;2.73;;
495;SDS011;39559;48.630;9.162;2023-03-24T18:33:06;2.92;;;2.70;;
495;SDS011;39559;48.630;9.162;2023-03-24T18:37:33;2.40;;;2.20;;
495;SDS011;39559;48.630;9.162;2023-03-24T18:39:59;2.50;;;2.30;;
495;SDS011;39559;48.630;9.162;2023-03-24T18:42:24;2.53;;;2.33;;
495;SDS011;39559;48.630;9.162;2023-03-24T18:44:51;2.50;;;2.30;;
495;SDS011;39559;48.630;9.162;2023-03-24T18:47:16;2.90;;;2.40;;
495;SDS011;39559;48.630;9.162;2023-03-24T18:49:42;2.40;;;2.20;;
495;SDS011;39559;48.630;9.162;2023-03-24T18:52:08;2.53;;;2.33;;
495;SDS011;39559;48.630;9.162;2023-03-24T18:54:34;2.57;;;2.37;;
495;SDS011;39559;48.630;9.162;2023-03-24T18:56:59;2.47;;;2.20;;
495;SDS011;39559;48.630;9.162;2023-03-24T19:01:30;3.05;;;2.47;;
495;SDS011;39559;48.630;9.162;2023-03-24T19:03:57;2.50;;;2.30;;
495;SDS011;39559;48.630;9.162;2023-03-24T19:06:23;2.60;;;2.40;;
495;SDS011;39559;48.630;9.162;2023-03-24T19:08:55;3.25;;;2.90;;
495;SDS011;39559;48.630;9.162;2023-03-24T19:11:22;2.30;;;2.17;;
495;SDS011;39559;48.630;9.162;2023-03-24T19:13:48;2.45;;;2.25;;
495;SDS011;39559;48.630;9.162;2023-03-24T19:16:15;2.60;;;1.80;;
495;SDS011;39559;48.630;9.162;2023-03-24T19:18:41;3.10;;;2.60;;
495;SDS011;39559;48.630;9.162;2023-03-24T19:21:07;2.93;;;2.40;;
495;SDS011;39559;48.630;9.162;2023-03-24T19:25:27;2.85;;;2.65;;
495;SDS011;39559;48.630;9.162;2023-03-24T19:27:52;2.50;;;2.30;;
495;SDS011;39559;48.630;9.162;2023-03-24T19:30:18;2.37;;;2.17;;
495;SDS011;39559;48.630;9.162;2023-03-24T19:32:44;2.83;;;2.57;;
495;SDS011;39559;48.630;9.162;2023-03-24T19:35:10;2.60;;;2.10;;
495;SDS011;39559;48.630;9.162;2023-03-24T19:37:36;2.88;;;2.20;;
495;SDS011;39559;48.630;9.162;2023-03-24T19:40:02;2.60;;;2.40;;
495;SDS011;39559;48.630;9.162;2023-03-24T19:42:39;2.67;;;2.47;;
495;SDS011;39559;48.630;9.162;2023-03-24T19:45:07;2.40;;;2.20;;
495;SDS011;39559;48.630;9.162;2023-03-24T19:49:24;3.42;;;3.13;;
495;SDS011;39559;48.630;9.162;2023-03-24T19:51:49;3.33;;;3.03;;
495;SDS011;39559;48.630;9.162;2023-03-24T19:54:15;3.10;;;2.80;;